Time;durP1;ratioP1;P1;durP2;ratioP2;P2;SDS_P1;SDS_P2;PMS_P1;PMS_P2;Temp;Humidity;BMP_temperature;BMP_pressure;BME280_temperature;BME280_humidity;BME280_pressure;Samples;Min_cycle;Max_cycle;Signal;HPM_P1;HPM_P2
2021/12/31 00:00:38;;;;;;;280.30;62.50;;;13.20;99.90;;;;;;5113633;28;20427;-74
2021/12/31 00:03:07;;;;;;;620.00;120.97;;;13.20;99.90;;;;;;5112098;28;20466;-74
2021/12/31 00:05:35;;;;;;;567.10;96.50;;;13.10;99.90;;;;;;5112212;28;20443;-74
2021/12/31 00:08:07;;;;;;;378.37;65.37;;;13.20;99.90;;;;;;5113557;28;20829;-75
2021/12/31 00:10:35;;;;;;;449.80;96.47;;;13.20;99.90;;;;;;5113746;28;20419;-74
2021/12/31 00:13:04;;;;;;;498.27;84.07;;;13.20;99.90;;;;;;5113368;28;20455;-74
2021/12/31 00:15:33;;;;;;;403.30;72.63;;;13.20;99.90;;;;;;5113402;28;20441;-74
2021/12/31 00:18:01;;;;;;;513.33;85.60;;;13.10;99.90;;;;;;5113714;28;20450;-74
2021/12/31 00:20:30;;;;;;;429.57;74.40;;;13.20;99.90;;;;;;5113293;28;20467;-74
2021/12/31 00:23:06;;;;;;;392.90;70.27;;;13.20;99.90;;;;;;5113643;28;20526;-75
2021/12/31 00:25:36;;;;;;;541.87;107.87;;;13.20;99.90;;;;;;5117286;28;20901;-74
2021/12/31 00:28:05;;;;;;;389.43;74.73;;;13.10;99.90;;;;;;5117019;28;20439;-74
2021/12/31 00:30:37;;;;;;;529.27;114.77;;;13.10;99.90;;;;;;5117155;28;20467;-74
2021/12/31 00:33:08;;;;;;;437.57;95.50;;;13.20;99.90;;;;;;5115795;27;20455;-74
2021/12/31 00:35:38;;;;;;;473.87;97.33;;;13.10;99.90;;;;;;5115807;28;20439;-75
2021/12/31 00:38:07;;;;;;;601.13;107.13;;;13.20;99.90;;;;;;5116970;28;20539;-74
2021/12/31 00:40:36;;;;;;;454.33;89.47;;;13.20;99.90;;;;;;5116879;28;20459;-74
2021/12/31 00:43:06;;;;;;;370.47;98.87;;;13.20;99.90;;;;;;5116862;28;20537;-74
2021/12/31 00:45:39;;;;;;;421.47;75.90;;;13.20;99.90;;;;;;5116959;28;20504;-74
2021/12/31 00:48:09;;;;;;;443.57;83.57;;;13.10;99.90;;;;;;5117103;28;20422;-74
2021/12/31 00:50:38;;;;;;;354.10;93.87;;;13.10;99.90;;;;;;5117022;28;20524;-74
2021/12/31 00:53:07;;;;;;;385.93;87.70;;;13.20;99.90;;;;;;5116422;28;20465;-74
2021/12/31 00:55:36;;;;;;;347.33;95.10;;;13.10;99.90;;;;;;5115439;28;20439;-74
2021/12/31 00:58:06;;;;;;;354.23;82.90;;;13.10;99.90;;;;;;5116929;28;20443;-74
2021/12/31 01:00:37;;;;;;;466.67;82.10;;;13.10;99.90;;;;;;5116503;28;20463;-74
2021/12/31 01:03:05;;;;;;;381.30;110.17;;;13.10;99.90;;;;;;5116424;28;20469;-74
2021/12/31 01:05:34;;;;;;;322.00;73.13;;;13.10;99.90;;;;;;5116763;28;20486;-73
2021/12/31 01:08:02;;;;;;;372.43;71.90;;;13.10;99.90;;;;;;5117037;27;20431;-74
2021/12/31 01:10:32;;;;;;;417.73;83.03;;;13.10;99.90;;;;;;5116451;28;20435;-74
2021/12/31 01:13:08;;;;;;;348.47;97.40;;;13.10;99.90;;;;;;5116333;28;20447;-74
2021/12/31 01:15:41;;;;;;;366.43;70.90;;;13.10;99.90;;;;;;5117430;28;20843;-74
2021/12/31 01:18:21;;;;;;;339.27;65.10;;;13.20;99.90;;;;;;5117031;28;20422;-73
2021/12/31 01:20:49;;;;;;;348.13;53.70;;;13.20;99.90;;;;;;5119484;28;20463;-74
2021/12/31 01:23:18;;;;;;;220.87;57.07;;;13.10;99.90;;;;;;5116663;28;20445;-73
2021/12/31 01:25:46;;;;;;;470.10;99.90;;;13.20;99.90;;;;;;5116714;28;20435;-72
2021/12/31 01:28:14;;;;;;;470.43;98.10;;;13.10;99.90;;;;;;5116827;28;20526;-73
2021/12/31 01:30:46;;;;;;;377.53;86.50;;;13.20;99.90;;;;;;5115739;28;20534;-74
2021/12/31 01:33:16;;;;;;;398.47;101.30;;;13.20;99.90;;;;;;5115252;28;20443;-74
2021/12/31 01:35:45;;;;;;;472.83;114.10;;;13.20;99.90;;;;;;5116142;28;20416;-74
2021/12/31 01:38:13;;;;;;;589.83;99.70;;;13.20;99.90;;;;;;5115789;28;20461;-74
2021/12/31 01:40:41;;;;;;;480.17;102.80;;;13.20;99.90;;;;;;5115880;28;20463;-75
2021/12/31 01:43:11;;;;;;;194.30;49.90;;;13.20;99.90;;;;;;5114852;28;20451;-74
2021/12/31 01:45:46;;;;;;;236.77;59.70;;;13.20;99.90;;;;;;5115690;28;20438;-74
2021/12/31 01:48:25;;;;;;;166.53;33.13;;;13.20;99.90;;;;;;5115952;28;20424;-73
2021/12/31 01:50:53;;;;;;;235.07;45.50;;;13.20;99.90;;;;;;5115649;27;20412;-73
2021/12/31 01:53:23;;;;;;;764.43;94.50;;;13.20;99.90;;;;;;5115586;28;20434;-74
2021/12/31 01:55:57;;;;;;;401.73;60.80;;;13.20;99.90;;;;;;5114185;28;20444;-73
2021/12/31 01:58:26;;;;;;;114.50;39.50;;;13.20;99.90;;;;;;5115736;28;20419;-74
2021/12/31 02:00:55;;;;;;;398.10;79.93;;;13.20;99.90;;;;;;5114091;28;20478;-74
2021/12/31 02:03:26;;;;;;;119.20;33.57;;;13.20;99.90;;;;;;5114012;28;20469;-74
2021/12/31 02:05:56;;;;;;;316.53;54.20;;;13.30;99.90;;;;;;5115597;28;20418;-74
2021/12/31 02:08:24;;;;;;;715.23;135.30;;;13.30;99.90;;;;;;5115553;28;20489;-74
2021/12/31 02:10:53;;;;;;;327.37;81.73;;;13.30;99.90;;;;;;5115417;28;20446;-73
2021/12/31 02:13:24;;;;;;;129.97;44.10;;;13.30;99.90;;;;;;5115728;28;20800;-73
2021/12/31 02:15:53;;;;;;;147.83;33.80;;;13.30;99.90;;;;;;5115135;28;20481;-73
2021/12/31 02:18:21;;;;;;;281.73;57.40;;;13.30;99.90;;;;;;5115036;28;20435;-74
2021/12/31 02:20:50;;;;;;;83.93;30.00;;;13.30;99.90;;;;;;5114834;28;20967;-74
2021/12/31 02:23:23;;;;;;;490.00;69.53;;;13.30;99.90;;;;;;5115473;28;20435;-73
2021/12/31 02:25:52;;;;;;;263.83;57.53;;;13.30;99.90;;;;;;5113880;28;20831;-73
2021/12/31 02:28:20;;;;;;;155.03;63.00;;;13.30;99.90;;;;;;5115193;28;20433;-73
2021/12/31 02:30:49;;;;;;;1430.37;148.60;;;13.30;99.90;;;;;;5114791;28;20424;-73
2021/12/31 02:33:17;;;;;;;145.67;43.80;;;13.30;99.90;;;;;;5113476;28;20853;-73
2021/12/31 02:35:46;;;;;;;107.93;41.20;;;13.30;99.90;;;;;;5114622;28;20428;-74
2021/12/31 02:38:15;;;;;;;691.40;116.97;;;13.30;99.90;;;;;;5113314;28;20542;-73
2021/12/31 02:40:43;;;;;;;215.07;45.27;;;13.30;99.90;;;;;;5114822;28;20887;-74
2021/12/31 02:43:13;;;;;;;276.37;56.10;;;13.30;99.90;;;;;;5114441;28;20447;-74
2021/12/31 02:45:42;;;;;;;356.93;73.70;;;13.30;99.90;;;;;;5114128;28;20435;-74
2021/12/31 02:48:11;;;;;;;469.77;114.43;;;13.40;99.90;;;;;;5114801;28;20463;-73
2021/12/31 02:50:42;;;;;;;382.73;81.70;;;13.40;99.90;;;;;;5114450;28;20428;-73
2021/12/31 02:53:16;;;;;;;421.00;97.80;;;13.40;99.90;;;;;;5114410;28;20542;-73
2021/12/31 02:55:45;;;;;;;251.47;79.73;;;13.40;99.90;;;;;;5114677;28;20522;-74
2021/12/31 02:58:14;;;;;;;318.77;92.27;;;13.40;99.90;;;;;;5114286;28;21008;-74
2021/12/31 03:00:43;;;;;;;415.57;95.33;;;13.40;99.90;;;;;;5113412;28;20463;-74
2021/12/31 03:03:14;;;;;;;361.03;86.60;;;13.40;99.90;;;;;;5114457;28;20979;-74
2021/12/31 03:05:43;;;;;;;216.13;73.77;;;13.40;99.90;;;;;;5114612;28;20428;-72
2021/12/31 03:08:12;;;;;;;258.13;77.90;;;13.40;99.90;;;;;;5114142;28;20463;-72
2021/12/31 03:10:42;;;;;;;438.37;114.13;;;13.40;99.90;;;;;;5112915;28;20809;-72
2021/12/31 03:13:11;;;;;;;356.27;93.63;;;13.40;99.90;;;;;;5124567;28;20506;-71
2021/12/31 03:15:42;;;;;;;286.97;83.50;;;13.40;99.90;;;;;;5127003;28;20466;-70
2021/12/31 03:18:12;;;;;;;406.90;100.37;;;13.40;99.90;;;;;;5127614;28;20411;-71
2021/12/31 03:20:43;;;;;;;413.30;103.00;;;13.40;99.90;;;;;;5126855;28;20534;-71
2021/12/31 03:23:11;;;;;;;496.47;107.00;;;13.40;99.90;;;;;;5129512;28;20450;-71
2021/12/31 03:25:39;;;;;;;259.53;80.77;;;13.40;99.90;;;;;;5134853;28;20442;-72
2021/12/31 03:28:07;;;;;;;307.03;71.23;;;13.40;99.90;;;;;;5134160;28;20448;-71
2021/12/31 03:30:37;;;;;;;350.93;102.10;;;13.40;99.90;;;;;;5119146;28;20934;-71
2021/12/31 03:33:05;;;;;;;570.33;115.10;;;13.40;99.90;;;;;;5113985;28;20458;-70
2021/12/31 03:35:33;;;;;;;382.37;107.73;;;13.40;99.90;;;;;;5114263;28;20797;-71
2021/12/31 03:38:01;;;;;;;398.03;88.93;;;13.40;99.90;;;;;;5113863;28;20450;-71
2021/12/31 03:40:29;;;;;;;397.33;91.57;;;13.40;99.90;;;;;;5114070;28;21055;-70
2021/12/31 03:42:58;;;;;;;291.47;89.90;;;13.40;99.90;;;;;;5112358;28;20463;-71
2021/12/31 03:45:26;;;;;;;289.10;87.27;;;13.40;99.90;;;;;;5114403;28;20439;-70
2021/12/31 03:47:56;;;;;;;1002.43;211.43;;;13.40;99.90;;;;;;5113968;28;20431;-71
2021/12/31 03:50:24;;;;;;;238.83;78.83;;;13.40;99.90;;;;;;5113797;28;20437;-71
2021/12/31 03:52:52;;;;;;;372.43;103.40;;;13.40;99.90;;;;;;5113758;28;20451;-71
2021/12/31 03:55:21;;;;;;;272.07;90.60;;;13.40;99.90;;;;;;5112324;28;20993;-70
2021/12/31 03:57:49;;;;;;;216.27;76.63;;;13.40;99.90;;;;;;5113997;28;20463;-70
2021/12/31 04:00:17;;;;;;;229.03;67.13;;;13.40;99.90;;;;;;5117686;27;20439;-70
2021/12/31 04:02:45;;;;;;;196.33;66.77;;;13.40;99.90;;;;;;5117622;28;20470;-70
2021/12/31 04:05:15;;;;;;;719.40;153.13;;;13.40;99.90;;;;;;5117689;28;20816;-70
2021/12/31 04:07:43;;;;;;;259.30;74.57;;;13.40;99.90;;;;;;5117907;28;20435;-71
2021/12/31 04:10:11;;;;;;;197.60;58.67;;;13.40;99.90;;;;;;5117533;28;20450;-70
2021/12/31 04:12:39;;;;;;;205.03;57.63;;;13.40;99.90;;;;;;5117468;28;20809;-70
2021/12/31 04:15:08;;;;;;;286.80;73.40;;;13.40;99.90;;;;;;5116200;28;20439;-71
2021/12/31 04:17:37;;;;;;;343.47;73.27;;;13.40;99.90;;;;;;5116118;28;20439;-71
2021/12/31 04:20:10;;;;;;;280.00;81.07;;;13.40;99.90;;;;;;5117277;28;20435;-71
2021/12/31 04:22:45;;;;;;;338.60;70.43;;;13.40;99.90;;;;;;5117198;28;20510;-70
2021/12/31 04:25:13;;;;;;;170.97;60.03;;;13.40;99.90;;;;;;5117599;28;20431;-71
2021/12/31 04:27:41;;;;;;;207.70;58.07;;;13.40;99.90;;;;;;5117210;28;20435;-71
2021/12/31 04:30:11;;;;;;;237.73;61.47;;;13.40;99.90;;;;;;5117165;27;20431;-71
2021/12/31 04:32:40;;;;;;;210.90;60.07;;;13.40;99.90;;;;;;5117012;28;20458;-71
2021/12/31 04:35:08;;;;;;;516.63;108.90;;;13.40;99.90;;;;;;5115863;28;20449;-71
2021/12/31 04:37:36;;;;;;;207.00;61.87;;;13.40;99.90;;;;;;5116863;28;20461;-71
2021/12/31 04:40:08;;;;;;;258.93;56.47;;;13.40;99.90;;;;;;5117214;28;20423;-71
2021/12/31 04:42:36;;;;;;;274.20;59.97;;;13.40;99.90;;;;;;5117508;27;20663;-71
2021/12/31 04:45:05;;;;;;;417.23;93.70;;;13.40;99.90;;;;;;5120733;28;20435;-71
2021/12/31 04:47:34;;;;;;;379.03;91.77;;;13.40;99.90;;;;;;5118693;28;20450;-71
2021/12/31 04:50:02;;;;;;;253.63;79.77;;;13.40;99.90;;;;;;5116498;28;20479;-72
2021/12/31 04:52:30;;;;;;;203.33;60.63;;;13.40;99.90;;;;;;5115780;28;20546;-71
2021/12/31 04:54:58;;;;;;;170.93;70.20;;;13.40;99.90;;;;;;5117091;28;20437;-71
2021/12/31 04:57:27;;;;;;;132.77;40.10;;;13.40;99.90;;;;;;5115507;28;20444;-72
2021/12/31 04:59:55;;;;;;;257.13;63.23;;;13.40;99.90;;;;;;5116877;28;20441;-72
2021/12/31 05:02:24;;;;;;;142.00;51.37;;;13.40;99.90;;;;;;5116486;28;20475;-72
2021/12/31 05:04:52;;;;;;;134.80;42.80;;;13.40;99.90;;;;;;5116646;28;20482;-71
2021/12/31 05:07:20;;;;;;;235.37;73.33;;;13.40;99.90;;;;;;5116720;28;20449;-71
2021/12/31 05:09:48;;;;;;;328.80;75.80;;;13.40;99.90;;;;;;5116012;28;20798;-72
2021/12/31 05:12:23;;;;;;;351.70;72.03;;;13.40;99.90;;;;;;5115040;28;20512;-71
2021/12/31 05:14:52;;;;;;;280.50;64.53;;;13.40;99.90;;;;;;5116674;28;20454;-72
2021/12/31 05:17:20;;;;;;;592.77;120.73;;;13.40;99.90;;;;;;5116224;28;20954;-72
2021/12/31 05:19:49;;;;;;;222.00;56.40;;;13.40;99.90;;;;;;5116262;28;20776;-72
2021/12/31 05:22:17;;;;;;;255.87;61.77;;;13.40;99.90;;;;;;5116002;28;20871;-72
2021/12/31 05:24:45;;;;;;;239.70;71.83;;;13.40;99.90;;;;;;5116466;27;20786;-72
2021/12/31 05:27:13;;;;;;;341.60;82.40;;;13.40;99.90;;;;;;5116084;28;20963;-71
2021/12/31 05:29:41;;;;;;;228.03;60.30;;;13.40;99.90;;;;;;5116416;28;20505;-72
2021/12/31 05:32:11;;;;;;;479.07;111.07;;;13.40;99.90;;;;;;5116461;28;20458;-71
2021/12/31 05:34:39;;;;;;;158.20;61.23;;;13.40;99.90;;;;;;5115916;28;20431;-71
2021/12/31 05:37:07;;;;;;;254.77;84.50;;;13.50;99.90;;;;;;5115910;28;20817;-71
2021/12/31 05:39:35;;;;;;;364.13;92.83;;;13.50;99.90;;;;;;5116183;27;20440;-71
2021/12/31 05:42:03;;;;;;;321.47;82.93;;;13.50;99.90;;;;;;5115723;28;20479;-71
2021/12/31 05:44:32;;;;;;;412.70;94.10;;;13.50;99.90;;;;;;5115695;27;21006;-71
2021/12/31 05:47:00;;;;;;;473.70;103.13;;;13.50;99.90;;;;;;5115680;28;20447;-71
2021/12/31 05:49:30;;;;;;;421.50;109.57;;;13.50;99.90;;;;;;5115683;28;20463;-71
2021/12/31 05:51:58;;;;;;;443.23;114.90;;;13.50;99.90;;;;;;5115438;28;20462;-71
2021/12/31 05:54:26;;;;;;;599.17;147.13;;;13.50;99.90;;;;;;5115985;28;20436;-71
2021/12/31 05:56:55;;;;;;;470.73;101.63;;;13.50;99.90;;;;;;5115926;28;20438;-72
2021/12/31 05:59:23;;;;;;;471.53;113.83;;;13.50;99.90;;;;;;5115741;28;20444;-71
2021/12/31 06:01:52;;;;;;;493.57;121.80;;;13.50;99.90;;;;;;5115276;28;20829;-72
2021/12/31 06:04:22;;;;;;;317.43;92.97;;;13.50;99.90;;;;;;5115814;28;20784;-71
2021/12/31 06:06:53;;;;;;;532.70;155.10;;;13.50;99.90;;;;;;5114022;28;20435;-71
2021/12/31 06:09:21;;;;;;;947.37;188.47;;;13.60;99.90;;;;;;5114113;28;20531;-71
2021/12/31 06:11:49;;;;;;;537.50;149.20;;;13.60;99.90;;;;;;5113859;28;20466;-71
2021/12/31 06:14:18;;;;;;;698.60;173.77;;;13.50;99.90;;;;;;5115440;28;20435;-71
2021/12/31 06:16:47;;;;;;;848.83;184.03;;;13.60;99.90;;;;;;5115110;28;20440;-71
2021/12/31 06:19:16;;;;;;;666.83;167.63;;;13.60;99.90;;;;;;5113812;28;20466;-71
2021/12/31 06:21:46;;;;;;;833.47;189.60;;;13.60;99.90;;;;;;5113943;28;20470;-70
2021/12/31 06:24:16;;;;;;;826.40;146.93;;;13.60;99.90;;;;;;5113749;28;20439;-72
2021/12/31 06:26:44;;;;;;;723.30;160.27;;;13.60;99.90;;;;;;5113637;28;20457;-71
2021/12/31 06:29:12;;;;;;;1674.53;306.43;;;13.60;99.90;;;;;;5115383;28;20467;-72
2021/12/31 06:31:40;;;;;;;650.73;161.53;;;13.60;99.90;;;;;;5114988;28;20974;-71
2021/12/31 06:34:08;;;;;;;875.13;179.60;;;13.60;99.90;;;;;;5114843;28;20998;-72
2021/12/31 06:36:36;;;;;;;849.33;179.27;;;13.60;99.90;;;;;;5113616;28;20454;-72
2021/12/31 06:39:04;;;;;;;721.93;196.57;;;13.60;99.90;;;;;;5114748;28;20530;-71
2021/12/31 06:41:34;;;;;;;1689.33;315.97;;;13.60;99.90;;;;;;5114604;28;20461;-72
2021/12/31 06:44:02;;;;;;;740.10;167.10;;;13.60;99.90;;;;;;5114803;28;20474;-72
2021/12/31 06:46:30;;;;;;;1012.17;246.40;;;13.60;99.90;;;;;;5114959;28;20435;-72
2021/12/31 06:48:58;;;;;;;716.07;209.30;;;13.70;99.90;;;;;;5114546;28;20547;-71
2021/12/31 06:51:26;;;;;;;890.63;229.10;;;13.60;99.90;;;;;;5114444;28;20469;-72
2021/12/31 06:53:54;;;;;;;880.73;206.27;;;13.60;99.90;;;;;;5114694;28;20470;-73
2021/12/31 06:56:22;;;;;;;1063.63;262.03;;;13.70;99.90;;;;;;5113131;28;20435;-72
2021/12/31 06:58:52;;;;;;;1484.10;318.20;;;13.70;99.90;;;;;;5114379;28;20450;-72
2021/12/31 07:01:21;;;;;;;1864.63;415.43;;;13.70;99.90;;;;;;5114219;28;20473;-72
2021/12/31 07:03:49;;;;;;;1358.30;317.17;;;13.70;99.90;;;;;;5114447;28;20467;-72
2021/12/31 07:06:17;;;;;;;1519.37;388.13;;;13.70;99.90;;;;;;5114332;28;20443;-72
2021/12/31 07:08:45;;;;;;;1645.83;402.30;;;13.70;99.90;;;;;;5114189;28;20444;-72
2021/12/31 07:11:16;;;;;;;1744.77;430.53;;;13.70;99.90;;;;;;5112804;28;20483;-72
2021/12/31 07:13:44;;;;;;;1788.73;392.03;;;13.70;99.90;;;;;;5114446;28;20428;-72
2021/12/31 07:16:13;;;;;;;1570.17;330.07;;;13.70;99.90;;;;;;5114104;28;20431;-72
2021/12/31 07:18:41;;;;;;;1928.63;440.43;;;13.70;99.90;;;;;;5114376;28;20435;-72
2021/12/31 07:21:10;;;;;;;1919.07;465.80;;;13.70;99.90;;;;;;5113876;28;20427;-72
2021/12/31 07:23:38;;;;;;;1999.90;458.23;;;13.70;99.90;;;;;;5113899;28;20554;-72
2021/12/31 07:26:07;;;;;;;1986.90;514.67;;;13.70;99.90;;;;;;5114208;28;20471;-72
2021/12/31 07:28:35;;;;;;;1968.37;502.43;;;13.70;99.90;;;;;;5114254;28;20463;-72
2021/12/31 07:31:04;;;;;;;1999.90;627.07;;;13.70;99.90;;;;;;5114134;28;20440;-71
2021/12/31 07:33:33;;;;;;;1999.90;516.23;;;13.70;99.90;;;;;;5112522;28;20526;-71
2021/12/31 07:36:02;;;;;;;1999.90;544.40;;;13.70;99.90;;;;;;5112858;28;20488;-71
2021/12/31 07:38:34;;;;;;;1997.03;482.70;;;13.70;99.90;;;;;;5114395;28;20944;-71
2021/12/31 07:41:03;;;;;;;1999.90;538.70;;;13.70;99.90;;;;;;5114408;28;20447;-71
2021/12/31 07:43:31;;;;;;;1984.23;486.00;;;13.70;99.90;;;;;;5114288;28;20558;-72
2021/12/31 07:46:00;;;;;;;1999.90;525.03;;;13.70;99.90;;;;;;5114003;28;20545;-71
2021/12/31 07:48:28;;;;;;;1999.90;490.97;;;13.70;99.90;;;;;;5113925;28;20448;-71
2021/12/31 07:50:57;;;;;;;1999.90;546.10;;;13.70;99.90;;;;;;5112498;28;20442;-71
2021/12/31 07:53:26;;;;;;;1999.90;614.83;;;13.70;99.90;;;;;;5113832;28;20427;-71
2021/12/31 07:55:54;;;;;;;1999.90;611.23;;;13.70;99.90;;;;;;5112443;28;20504;-71
2021/12/31 07:58:24;;;;;;;1999.90;616.20;;;13.70;99.90;;;;;;5113964;28;20485;-71
2021/12/31 08:00:52;;;;;;;1999.90;609.07;;;13.70;99.90;;;;;;5113614;28;20440;-71
2021/12/31 08:03:20;;;;;;;1999.90;671.03;;;13.70;99.90;;;;;;5113452;28;20467;-71
2021/12/31 08:05:48;;;;;;;1999.90;657.40;;;13.70;99.90;;;;;;5114095;28;20435;-71
2021/12/31 08:08:18;;;;;;;1999.90;588.87;;;13.70;99.90;;;;;;5113748;28;20956;-71
2021/12/31 08:10:46;;;;;;;1999.90;677.47;;;13.70;99.90;;;;;;5115746;28;20447;-71
2021/12/31 08:13:24;;;;;;;1999.90;608.37;;;13.70;99.90;;;;;;5119088;28;20476;-71
2021/12/31 08:15:55;;;;;;;1999.90;609.57;;;13.70;99.90;;;;;;5125992;28;20449;-71
2021/12/31 08:18:23;;;;;;;1999.90;631.50;;;13.70;99.90;;;;;;5131003;28;20434;-72
2021/12/31 08:20:52;;;;;;;1999.90;656.90;;;13.70;99.90;;;;;;5134733;28;20440;-72
2021/12/31 08:23:21;;;;;;;1999.90;624.57;;;13.70;99.90;;;;;;5134179;28;20480;-72
2021/12/31 08:25:49;;;;;;;1999.90;586.90;;;13.70;99.90;;;;;;5132307;28;20442;-72
2021/12/31 08:28:18;;;;;;;1999.90;613.93;;;13.60;99.90;;;;;;5132537;28;20458;-71
2021/12/31 08:30:46;;;;;;;1999.90;661.00;;;13.70;99.90;;;;;;5129202;28;20502;-71
2021/12/31 08:33:15;;;;;;;1999.90;526.37;;;13.70;99.90;;;;;;5122931;28;20463;-71
2021/12/31 08:35:43;;;;;;;1999.90;520.07;;;13.70;99.90;;;;;;5118493;28;20522;-70
2021/12/31 08:38:11;;;;;;;1999.90;549.83;;;13.70;99.90;;;;;;5113909;28;20457;-71
2021/12/31 08:40:40;;;;;;;1999.90;587.13;;;13.70;99.90;;;;;;5113394;28;20831;-71
2021/12/31 08:43:08;;;;;;;1999.90;636.13;;;13.70;99.90;;;;;;5113161;28;20572;-70
2021/12/31 08:45:38;;;;;;;1999.90;735.53;;;13.70;99.90;;;;;;5115160;28;20807;-70
2021/12/31 08:48:06;;;;;;;1999.90;675.90;;;13.60;99.90;;;;;;5116966;28;20443;-70
2021/12/31 08:50:35;;;;;;;1999.90;732.70;;;13.70;99.90;;;;;;5117196;28;20505;-70
2021/12/31 08:53:04;;;;;;;1999.90;644.63;;;13.70;99.90;;;;;;5117361;27;20819;-71
2021/12/31 08:55:32;;;;;;;1999.90;616.43;;;13.70;99.90;;;;;;5116830;28;20459;-71
2021/12/31 08:58:02;;;;;;;1999.90;652.53;;;13.70;99.90;;;;;;5116743;28;20443;-71
2021/12/31 09:00:30;;;;;;;1999.90;777.63;;;13.70;99.90;;;;;;5116704;28;20430;-71
2021/12/31 09:02:58;;;;;;;1999.90;613.33;;;13.70;99.90;;;;;;5116448;28;20463;-72
2021/12/31 09:05:27;;;;;;;1999.90;673.17;;;13.70;99.90;;;;;;5115290;28;20447;-71
2021/12/31 09:07:56;;;;;;;1999.90;760.27;;;13.70;99.90;;;;;;5116600;28;20440;-73
2021/12/31 09:10:24;;;;;;;1999.90;682.87;;;13.70;99.90;;;;;;5115264;28;20451;-72
2021/12/31 09:12:52;;;;;;;1999.90;694.63;;;13.70;99.90;;;;;;5116517;28;20471;-71
2021/12/31 09:15:22;;;;;;;1999.90;680.87;;;13.70;99.90;;;;;;5116385;28;20837;-71
2021/12/31 09:17:50;;;;;;;1999.90;659.73;;;13.70;99.90;;;;;;5116585;28;20522;-71
2021/12/31 09:20:18;;;;;;;1999.90;715.40;;;13.80;99.90;;;;;;5115098;28;21005;-71
2021/12/31 09:22:46;;;;;;;1999.90;771.83;;;13.80;99.90;;;;;;5116365;28;20499;-71
2021/12/31 09:25:15;;;;;;;1999.90;633.27;;;13.80;99.90;;;;;;5116078;28;20498;-71
2021/12/31 09:27:44;;;;;;;1999.90;661.67;;;13.80;99.90;;;;;;5116151;28;20828;-70
2021/12/31 09:30:13;;;;;;;1999.90;790.80;;;13.80;99.90;;;;;;5115602;28;20443;-71
2021/12/31 09:32:43;;;;;;;1999.90;744.93;;;13.80;99.90;;;;;;5115926;28;20451;-72
2021/12/31 09:35:11;;;;;;;1999.90;756.13;;;13.80;99.90;;;;;;5116021;28;20428;-72
2021/12/31 09:37:39;;;;;;;1999.90;603.40;;;13.80;99.90;;;;;;5115817;28;20530;-71
2021/12/31 09:40:09;;;;;;;1999.90;747.63;;;13.80;99.90;;;;;;5114643;28;20448;-71
2021/12/31 09:42:38;;;;;;;1999.90;718.20;;;13.80;99.90;;;;;;5116095;28;20463;-72
2021/12/31 09:45:08;;;;;;;1999.90;686.87;;;13.80;99.90;;;;;;5116009;28;20470;-72
2021/12/31 09:47:36;;;;;;;1999.90;705.20;;;13.80;99.90;;;;;;5115676;28;20423;-71
2021/12/31 09:50:06;;;;;;;1999.90;730.03;;;13.80;99.90;;;;;;5115684;28;20447;-71
2021/12/31 09:52:35;;;;;;;1999.90;790.87;;;13.80;99.90;;;;;;5114595;28;20482;-71
2021/12/31 09:55:09;;;;;;;1999.90;757.10;;;13.80;99.90;;;;;;5115925;28;20411;-72
2021/12/31 09:57:38;;;;;;;1999.90;768.13;;;13.80;99.90;;;;;;5115554;28;20437;-71
2021/12/31 10:00:08;;;;;;;1999.90;737.23;;;13.80;99.90;;;;;;5115547;28;20443;-72
2021/12/31 10:02:36;;;;;;;1999.90;725.17;;;13.80;99.90;;;;;;5115456;28;20475;-71
2021/12/31 10:05:07;;;;;;;1999.90;773.87;;;13.80;99.90;;;;;;5115578;28;20467;-72
2021/12/31 10:07:35;;;;;;;1999.90;765.97;;;13.80;99.90;;;;;;5115422;28;20861;-71
2021/12/31 10:10:10;;;;;;;1999.90;776.93;;;13.90;99.90;;;;;;5115304;28;20435;-71
2021/12/31 10:12:49;;;;;;;1999.90;702.53;;;13.90;99.90;;;;;;5115444;28;20465;-71
2021/12/31 10:15:19;;;;;;;1999.90;711.23;;;13.90;99.90;;;;;;5115715;28;20415;-71
2021/12/31 10:17:48;;;;;;;1999.90;753.53;;;13.90;99.90;;;;;;5115196;28;20442;-71
2021/12/31 10:20:18;;;;;;;1999.90;673.63;;;13.90;99.90;;;;;;5115490;28;20474;-72
2021/12/31 10:22:48;;;;;;;1999.90;815.67;;;13.90;99.90;;;;;;5115313;28;21020;-72
2021/12/31 10:25:18;;;;;;;1999.90;557.77;;;13.90;99.90;;;;;;5113873;28;20826;-72
2021/12/31 10:27:46;;;;;;;1999.90;716.67;;;13.90;99.90;;;;;;5115807;28;20440;-71
2021/12/31 10:30:15;;;;;;;1999.90;824.43;;;13.90;99.90;;;;;;5115436;28;20431;-71
2021/12/31 10:32:47;;;;;;;1999.90;713.33;;;13.90;99.90;;;;;;5116359;28;20479;-71
2021/12/31 10:35:19;;;;;;;1999.90;729.43;;;13.90;99.90;;;;;;5115701;28;20415;-70
2021/12/31 10:37:50;;;;;;;1999.90;654.00;;;13.90;99.90;;;;;;5114055;28;20546;-70
2021/12/31 10:40:29;;;;;;;1999.90;732.97;;;13.90;99.90;;;;;;5116906;28;20520;-70
2021/12/31 10:43:09;;;;;;;1999.90;688.27;;;13.90;99.90;;;;;;5118708;27;20538;-70
2021/12/31 10:45:38;;;;;;;1999.90;708.97;;;13.90;99.90;;;;;;5118196;28;20447;-71
2021/12/31 10:48:07;;;;;;;1999.90;654.33;;;13.90;99.90;;;;;;5118503;28;20947;-70
2021/12/31 10:50:38;;;;;;;1999.90;764.23;;;13.90;99.90;;;;;;5117142;28;20450;-71
2021/12/31 10:53:11;;;;;;;1999.90;723.53;;;13.90;99.90;;;;;;5118174;28;20880;-71
2021/12/31 10:55:40;;;;;;;1999.90;688.57;;;13.90;99.90;;;;;;5117370;28;21005;-71
2021/12/31 10:58:11;;;;;;;1999.90;670.30;;;13.90;99.90;;;;;;5118227;28;20446;-70
2021/12/31 11:00:41;;;;;;;1999.90;715.53;;;13.90;99.90;;;;;;5115102;28;20489;-70
2021/12/31 11:03:11;;;;;;;1999.90;667.07;;;14.00;99.90;;;;;;5113216;28;20999;-70
2021/12/31 11:05:42;;;;;;;1999.90;770.07;;;14.00;99.90;;;;;;5112948;28;20463;-71
2021/12/31 11:08:13;;;;;;;1999.90;739.60;;;13.90;99.90;;;;;;5114427;28;20416;-70
2021/12/31 11:10:42;;;;;;;1999.90;750.50;;;13.90;99.90;;;;;;5114451;28;20893;-71
2021/12/31 11:13:13;;;;;;;1999.90;742.40;;;13.90;99.90;;;;;;5112876;28;20570;-70
2021/12/31 11:15:42;;;;;;;1999.90;578.60;;;13.90;99.90;;;;;;5114171;28;20416;-71
2021/12/31 11:18:11;;;;;;;1999.90;662.63;;;13.90;99.90;;;;;;5113173;28;20440;-70
2021/12/31 11:20:42;;;;;;;1999.90;751.87;;;13.90;99.90;;;;;;5114112;28;20443;-70
2021/12/31 11:23:11;;;;;;;1999.90;770.33;;;13.90;99.90;;;;;;5114566;28;20451;-70
2021/12/31 11:25:52;;;;;;;1999.90;693.00;;;13.90;99.90;;;;;;5112688;28;20459;-70
2021/12/31 11:28:28;;;;;;;1999.90;742.00;;;13.90;99.90;;;;;;5113906;28;20429;-71
2021/12/31 11:30:57;;;;;;;1999.90;747.07;;;13.90;99.90;;;;;;5112498;28;21001;-70
2021/12/31 11:33:29;;;;;;;1999.90;765.53;;;13.90;99.90;;;;;;5112622;28;20453;-70
2021/12/31 11:36:08;;;;;;;1999.90;778.83;;;13.90;99.90;;;;;;5112786;28;20483;-71
2021/12/31 11:38:45;;;;;;;1999.90;685.03;;;13.90;99.90;;;;;;5112593;28;20467;-71
2021/12/31 11:41:14;;;;;;;1999.90;796.43;;;13.90;99.90;;;;;;5112467;28;20443;-71
2021/12/31 11:43:45;;;;;;;1999.90;826.33;;;13.90;99.90;;;;;;5114439;28;20429;-70
2021/12/31 11:46:44;;;;;;;1999.90;522.33;;;13.90;99.90;;;;;;5114363;28;20473;-72
2021/12/31 11:49:20;;;;;;;1999.90;768.93;;;13.90;99.90;;;;;;5114289;28;20443;-71
2021/12/31 11:52:06;;;;;;;1999.90;646.13;;;13.90;99.90;;;;;;5114439;28;20478;-71
2021/12/31 11:54:36;;;;;;;1999.90;627.77;;;13.90;99.90;;;;;;5112730;28;20459;-71
2021/12/31 11:57:09;;;;;;;1999.90;719.83;;;13.90;99.90;;;;;;5113986;28;20928;-71
2021/12/31 11:59:45;;;;;;;1999.90;721.73;;;13.90;99.90;;;;;;5112343;28;20518;-70
2021/12/31 12:02:19;;;;;;;1999.90;542.13;;;13.90;99.90;;;;;;5112775;28;20463;-70
2021/12/31 12:05:14;;;;;;;1999.90;691.33;;;13.90;99.90;;;;;;5112322;28;20460;-70
2021/12/31 12:07:49;;;;;;;1999.90;289.37;;;13.90;99.90;;;;;;5106680;28;20455;-71
2021/12/31 12:10:25;;;;;;;1999.90;691.70;;;13.90;99.90;;;;;;5113772;28;20506;-71
2021/12/31 12:12:56;;;;;;;1999.90;606.63;;;13.90;99.90;;;;;;5113942;28;20824;-71
2021/12/31 12:15:35;;;;;;;1999.90;999.90;;;13.90;99.90;;;;;;5113523;28;20506;-71
2021/12/31 12:18:06;;;;;;;1999.90;679.70;;;13.90;99.90;;;;;;5114028;28;20904;-71
2021/12/31 12:20:39;;;;;;;1999.90;740.17;;;13.90;99.90;;;;;;5116826;28;20756;-71